Time;durP1;ratioP1;P1;durP2;ratioP2;P2;SDS_P1;SDS_P2;PMS_P1;PMS_P2;Temp;Humidity;BMP_temperature;BMP_pressure;BME280_temperature;BME280_humidity;BME280_pressure;Samples;Min_cycle;Max_cycle;Signal;HPM_P1;HPM_P2
2021/06/05 00:01:25;;;;;;;4.25;3.85;;;;;;;25.17;37.45;102024.81;4167825;28;20299;-49
2021/06/05 00:03:25;;;;;;;4.22;3.92;;;;;;;25.10;37.60;102013.97;4163893;28;20475;-53
2021/06/05 00:05:28;;;;;;;5.07;4.18;;;;;;;25.09;37.50;102020.69;4161830;28;20111;-51
2021/06/05 00:07:28;;;;;;;4.05;3.20;;;;;;;25.11;37.48;102018.41;4164024;28;20040;-51
2021/06/05 00:09:29;;;;;;;5.45;3.70;;;;;;;25.14;37.61;102021.78;4162738;28;20429;-51
2021/06/05 00:11:30;;;;;;;5.00;4.35;;;;;;;25.11;37.65;102017.59;4163311;28;20044;-52
2021/06/05 00:13:35;;;;;;;4.07;3.78;;;;;;;25.08;37.58;102023.78;4165734;28;20051;-54
2021/06/05 00:15:41;;;;;;;4.45;4.05;;;;;;;25.13;37.22;102020.91;4164284;28;20033;-54
2021/06/05 00:17:41;;;;;;;3.83;3.53;;;;;;;24.92;37.49;102000.66;4165546;28;20029;-55
2021/06/05 00:19:42;;;;;;;3.78;3.47;;;;;;;25.08;37.57;102012.56;4163008;28;20045;-56
2021/06/05 00:21:43;;;;;;;3.85;3.55;;;;;;;25.10;37.47;102016.75;4165129;28;20374;-54
2021/06/05 00:23:44;;;;;;;4.30;3.90;;;;;;;25.09;37.31;102020.69;4164711;28;20048;-55
2021/06/05 00:25:46;;;;;;;4.45;4.05;;;;;;;25.06;37.51;102014.84;4172111;28;20559;-55
2021/06/05 00:27:46;;;;;;;6.00;3.63;;;;;;;24.99;37.49;102008.72;4165951;28;20086;-58
2021/06/05 00:29:47;;;;;;;3.67;3.47;;;;;;;25.07;37.39;102005.28;4167137;28;20033;-59
2021/06/05 00:31:47;;;;;;;6.03;3.75;;;;;;;25.05;37.67;102013.16;4166993;28;20041;-58
2021/06/05 00:33:48;;;;;;;3.88;3.58;;;;;;;25.01;37.54;102012.06;4165877;28;20025;-58
2021/06/05 00:35:50;;;;;;;4.13;3.83;;;;;;;24.97;37.68;102017.44;4167962;28;20033;-56
2021/06/05 00:37:50;;;;;;;4.13;3.80;;;;;;;24.98;37.54;102015.44;4148239;28;20029;-56
2021/06/05 00:39:51;;;;;;;4.22;3.83;;;;;;;24.93;37.63;102002.31;4153452;28;20029;-56
2021/06/05 00:41:52;;;;;;;3.38;3.15;;;;;;;24.97;37.46;102014.63;4161935;28;20038;-58
2021/06/05 00:43:57;;;;;;;3.70;3.40;;;;;;;24.96;37.37;102021.34;4162996;28;20067;-56
2021/06/05 00:45:58;;;;;;;5.30;3.97;;;;;;;24.97;37.68;102011.00;4179814;28;20102;-56
2021/06/05 00:47:59;;;;;;;3.67;3.38;;;;;;;24.94;37.52;102018.84;4172730;28;20033;-55
2021/06/05 00:50:01;;;;;;;4.72;3.47;;;;;;;24.93;37.45;102013.53;4170009;28;20026;-57
2021/06/05 00:52:03;;;;;;;3.25;3.00;;;;;;;24.87;37.67;102007.16;4168096;28;20533;-57
2021/06/05 00:54:05;;;;;;;4.25;3.47;;;;;;;24.86;37.89;102007.44;4169737;28;20493;-57
2021/06/05 00:56:10;;;;;;;4.25;3.85;;;;;;;24.82;37.46;102009.97;4166535;28;20030;-56
2021/06/05 00:58:10;;;;;;;3.92;3.53;;;;;;;24.84;37.82;102012.47;4168530;28;20843;-57
2021/06/05 01:00:57;;;;;;;3.72;3.47;;;;;;;24.86;37.36;102016.66;4172767;28;20029;-56
2021/06/05 01:03:01;;;;;;;3.78;3.47;;;;;;;24.87;37.79;102003.50;4139779;28;20045;-58
2021/06/05 01:05:02;;;;;;;4.28;3.97;;;;;;;24.85;37.91;102006.59;4169523;28;20484;-56
2021/06/05 01:07:18;;;;;;;4.68;3.45;;;;;;;24.86;37.81;102010.25;4164247;28;20523;-55
2021/06/05 01:09:34;;;;;;;4.00;3.70;;;;;;;24.85;37.33;102006.59;4165708;28;20022;-48
2021/06/05 01:11:58;;;;;;;3.72;3.35;;;;;;;24.82;37.84;102007.16;4170483;28;20037;-51
2021/06/05 01:14:15;;;;;;;4.00;3.55;;;;;;;24.80;37.80;102009.44;4176051;28;20067;-55
2021/06/05 01:16:19;;;;;;;3.30;3.10;;;;;;;24.80;37.75;102001.03;4169031;28;20039;-52
2021/06/05 01:18:29;;;;;;;3.55;3.30;;;;;;;24.75;37.59;102001.91;4169724;28;20118;-55
2021/06/05 01:21:03;;;;;;;3.10;2.90;;;;;;;24.78;37.49;102003.31;4166657;28;20457;-54
2021/06/05 01:23:25;;;;;;;3.58;3.28;;;;;;;24.80;37.65;101995.44;4164648;28;20103;-53
2021/06/05 01:25:43;;;;;;;3.97;3.67;;;;;;;24.77;37.74;101993.22;4172874;28;20485;-50
2021/06/05 01:27:51;;;;;;;4.60;3.80;;;;;;;24.75;37.65;101987.91;4172097;28;20051;-51
2021/06/05 01:29:54;;;;;;;3.92;3.60;;;;;;;24.67;37.66;101985.75;4172197;28;20407;-50
2021/06/05 01:32:00;;;;;;;3.53;3.22;;;;;;;24.76;37.83;101985.94;4170166;28;20036;-49
2021/06/05 01:34:01;;;;;;;3.33;3.13;;;;;;;24.72;37.81;101984.88;4164513;28;20136;-47
2021/06/05 01:36:04;;;;;;;3.58;3.28;;;;;;;24.70;37.76;101995.50;4168771;28;20044;-47
2021/06/05 01:38:06;;;;;;;3.28;3.05;;;;;;;24.63;37.92;101997.81;4173374;28;20036;-48
2021/06/05 01:40:10;;;;;;;3.35;3.15;;;;;;;24.69;37.61;102000.28;4172162;28;20033;-49
2021/06/05 01:42:17;;;;;;;3.30;3.10;;;;;;;24.70;37.52;101990.75;4154409;28;20052;-48
2021/06/05 01:44:19;;;;;;;3.97;3.35;;;;;;;24.63;37.68;101986.63;4170972;28;20112;-52
2021/06/05 01:46:24;;;;;;;3.85;3.28;;;;;;;24.66;37.55;101986.03;4175310;28;20044;-52
2021/06/05 01:48:25;;;;;;;3.22;2.92;;;;;;;24.49;38.07;101984.44;4170987;28;20203;-51
2021/06/05 01:50:32;;;;;;;3.85;3.20;;;;;;;24.57;37.83;101982.97;4168682;28;20140;-51
2021/06/05 01:52:34;;;;;;;3.33;3.03;;;;;;;24.56;37.88;101967.28;4165037;28;20033;-48
2021/06/05 01:54:40;;;;;;;3.00;2.80;;;;;;;24.65;37.87;101975.94;4153116;28;20144;-52
2021/06/05 01:56:50;;;;;;;4.68;2.67;;;;;;;24.62;37.88;101971.75;4172117;28;20082;-49
2021/06/05 01:58:52;;;;;;;3.03;2.83;;;;;;;24.50;37.81;101974.91;4165608;28;20108;-50
2021/06/05 02:00:55;;;;;;;3.97;3.08;;;;;;;24.55;37.76;101969.28;4162117;28;20037;-49
2021/06/05 02:02:56;;;;;;;3.20;2.90;;;;;;;24.51;38.05;101972.94;4168133;28;20041;-50
2021/06/05 02:04:57;;;;;;;3.13;2.83;;;;;;;24.50;37.85;101962.88;4168519;28;20391;-51
2021/06/05 02:06:58;;;;;;;3.08;2.88;;;;;;;24.34;38.11;101942.56;4163153;28;20037;-51
2021/06/05 02:09:01;;;;;;;3.30;3.10;;;;;;;24.49;37.94;101962.03;4168815;28;20474;-50
2021/06/05 02:11:06;;;;;;;2.95;2.75;;;;;;;24.55;37.79;101963.66;4166839;28;20037;-52
2021/06/05 02:13:12;;;;;;;2.90;2.50;;;;;;;24.53;37.72;101960.34;4173475;28;20056;-51
2021/06/05 02:15:19;;;;;;;3.17;2.88;;;;;;;24.52;37.90;101967.06;4165244;28;20048;-49
2021/06/05 02:17:22;;;;;;;2.83;2.63;;;;;;;24.54;37.97;101973.19;4167977;28;20036;-53
2021/06/05 02:19:31;;;;;;;2.90;2.60;;;;;;;24.51;37.78;101970.16;4167302;28;20392;-52
2021/06/05 02:21:33;;;;;;;2.90;2.70;;;;;;;24.52;38.10;101969.03;4165849;28;20108;-51
2021/06/05 02:23:55;;;;;;;2.85;2.65;;;;;;;24.47;37.80;101967.09;4167374;28;20136;-50
2021/06/05 02:25:58;;;;;;;2.55;2.35;;;;;;;24.45;38.00;101963.75;4164636;28;20098;-48
2021/06/05 02:28:01;;;;;;;2.90;2.70;;;;;;;24.33;38.37;101964.13;4163240;28;20029;-48
2021/06/05 02:30:04;;;;;;;3.15;2.90;;;;;;;24.37;38.13;101967.16;4162154;28;20092;-50
2021/06/05 02:32:09;;;;;;;2.75;2.55;;;;;;;24.40;37.98;101961.81;4164759;28;20084;-51
2021/06/05 02:34:14;;;;;;;3.03;2.72;;;;;;;24.43;37.85;101946.41;4166690;28;20029;-49
2021/06/05 02:36:16;;;;;;;2.90;2.70;;;;;;;24.46;37.94;101956.19;4164279;28;20032;-48
2021/06/05 02:38:19;;;;;;;5.45;2.45;;;;;;;24.40;38.22;101961.81;4162092;28;20030;-49
2021/06/05 02:40:24;;;;;;;2.70;2.50;;;;;;;24.33;38.13;101968.84;4165223;28;20026;-49
2021/06/05 02:42:26;;;;;;;3.25;2.95;;;;;;;24.20;38.28;101968.38;4167133;28;20108;-50
2021/06/05 02:44:29;;;;;;;2.60;2.40;;;;;;;24.14;38.56;101965.91;4160327;28;20053;-49
2021/06/05 02:46:36;;;;;;;2.47;2.28;;;;;;;24.14;38.49;101963.94;4161798;28;20032;-48
2021/06/05 02:49:01;;;;;;;2.28;2.13;;;;;;;24.21;38.30;101958.88;4167649;28;20375;-51
2021/06/05 02:51:02;;;;;;;2.60;2.40;;;;;;;24.28;38.13;101961.31;4164543;28;20021;-49
2021/06/05 02:53:04;;;;;;;2.60;2.40;;;;;;;24.34;37.80;101962.13;4166856;28;20627;-47
2021/06/05 02:55:33;;;;;;;2.35;2.25;;;;;;;24.34;38.05;101962.13;4169281;28;20059;-48
2021/06/05 02:57:34;;;;;;;2.80;2.60;;;;;;;24.23;38.03;101964.16;4157795;28;20052;-47
2021/06/05 02:59:34;;;;;;;2.38;2.17;;;;;;;24.27;38.11;101970.88;4163646;28;20055;-47
2021/06/05 03:01:35;;;;;;;2.65;2.45;;;;;;;24.22;38.03;101968.94;4169331;28;20033;-47
2021/06/05 03:03:36;;;;;;;2.17;2.08;;;;;;;24.21;37.93;101967.25;4169138;28;20024;-48
2021/06/05 03:05:37;;;;;;;2.40;2.30;;;;;;;24.25;38.24;101972.28;4165419;28;20044;-48
2021/06/05 03:07:37;;;;;;;2.25;2.10;;;;;;;24.29;38.09;101970.56;4163584;28;20053;-48
2021/06/05 03:09:38;;;;;;;2.75;2.28;;;;;;;24.20;38.30;101968.38;4150478;28;20026;-50
2021/06/05 03:11:38;;;;;;;2.10;2.00;;;;;;;24.24;37.79;101971.44;4168453;28;20034;-49
2021/06/05 03:13:40;;;;;;;3.35;2.45;;;;;;;24.27;37.86;101976.47;4166283;28;20430;-51
2021/06/05 03:15:41;;;;;;;3.47;2.55;;;;;;;24.08;38.10;101953.91;4163095;28;20128;-48
2021/06/05 03:17:41;;;;;;;2.28;2.15;;;;;;;24.15;38.24;101968.41;4165795;28;20030;-48
2021/06/05 03:19:42;;;;;;;2.88;2.47;;;;;;;24.06;38.51;101967.34;4166835;28;20427;-48
2021/06/05 03:21:42;;;;;;;2.17;1.90;;;;;;;24.14;38.23;101966.72;4169226;28;20723;-50
2021/06/05 03:23:45;;;;;;;2.35;1.80;;;;;;;24.16;38.33;101963.63;4168881;28;20041;-48
2021/06/05 03:25:46;;;;;;;2.20;2.10;;;;;;;24.09;38.03;101960.34;4169453;28;20137;-47
2021/06/05 03:27:47;;;;;;;2.10;1.90;;;;;;;24.08;38.21;101962.28;4162920;28;20559;-51
2021/06/05 03:29:47;;;;;;;2.10;2.00;;;;;;;24.14;37.95;101961.13;4166058;28;20043;-51
2021/06/05 03:31:48;;;;;;;2.40;2.30;;;;;;;24.14;38.31;101965.91;4160826;28;20131;-50
2021/06/05 03:33:49;;;;;;;2.15;2.05;;;;;;;24.14;38.20;101972.31;4163437;28;20033;-50
2021/06/05 03:35:51;;;;;;;2.35;2.15;;;;;;;24.10;38.48;101976.84;4163115;28;20048;-47
2021/06/05 03:37:52;;;;;;;1.90;1.80;;;;;;;24.09;38.11;101975.16;4161102;28;20380;-52
2021/06/05 03:39:52;;;;;;;2.60;2.40;;;;;;;24.04;38.39;101975.19;4164713;28;20123;-48
2021/06/05 03:41:53;;;;;;;4.22;2.30;;;;;;;24.10;38.43;101973.19;4164187;28;20068;-48
2021/06/05 03:43:53;;;;;;;2.08;1.98;;;;;;;24.05;38.44;101974.03;4162970;28;20657;-51
2021/06/05 03:45:54;;;;;;;1.73;1.63;;;;;;;24.03;38.45;101967.91;4166630;28;20491;-49
2021/06/05 03:47:55;;;;;;;3.42;2.15;;;;;;;24.01;38.09;101967.38;4147502;28;20187;-50
2021/06/05 03:49:55;;;;;;;3.28;2.00;;;;;;;24.00;38.28;101963.72;4163937;28;20029;-49
2021/06/05 03:51:56;;;;;;;2.22;2.03;;;;;;;23.84;38.40;101959.31;4162179;28;20087;-51
2021/06/05 03:53:56;;;;;;;2.60;2.40;;;;;;;23.79;38.69;101956.50;4166584;28;20029;-49
2021/06/05 03:55:57;;;;;;;2.20;2.10;;;;;;;23.81;38.56;101963.50;4165019;28;20036;-50
2021/06/05 03:57:59;;;;;;;2.33;2.08;;;;;;;23.84;38.54;101962.09;4160207;28;20546;-51
2021/06/05 04:00:00;;;;;;;2.85;1.67;;;;;;;23.56;38.90;101936.50;4159780;28;20413;-50
2021/06/05 04:02:00;;;;;;;1.80;1.70;;;;;;;23.74;38.79;101971.34;4164799;28;20064;-49
2021/06/05 04:04:01;;;;;;;1.60;1.50;;;;;;;23.69;38.94;101963.00;4162082;28;20036;-50
2021/06/05 04:06:02;;;;;;;2.42;1.70;;;;;;;23.72;38.68;101967.19;4162560;28;20068;-53
2021/06/05 04:08:03;;;;;;;1.73;1.63;;;;;;;23.73;38.76;101964.13;4159924;28;20482;-50
2021/06/05 04:10:05;;;;;;;1.95;1.85;;;;;;;23.70;38.90;101967.47;4167423;28;20045;-53
2021/06/05 04:12:07;;;;;;;1.70;1.60;;;;;;;23.77;38.80;101968.00;4164412;28;20033;-51
2021/06/05 04:14:10;;;;;;;2.05;1.95;;;;;;;23.64;38.78;101961.06;4168720;28;20045;-52
2021/06/05 04:16:10;;;;;;;1.83;1.70;;;;;;;23.71;38.90;101971.94;4167355;28;20582;-48
2021/06/05 04:18:15;;;;;;;1.85;1.75;;;;;;;23.65;39.14;101975.84;4160943;28;20025;-51
2021/06/05 04:20:16;;;;;;;1.77;1.67;;;;;;;23.78;38.81;101975.25;4162923;28;20479;-49
2021/06/05 04:22:17;;;;;;;1.92;1.83;;;;;;;23.77;39.10;101976.38;4165623;28;20044;-48
2021/06/05 04:24:17;;;;;;;1.70;1.60;;;;;;;23.73;39.09;101971.63;4163126;28;20026;-49
2021/06/05 04:26:19;;;;;;;1.95;1.77;;;;;;;23.72;39.17;101973.59;4163875;28;20305;-48
2021/06/05 04:28:22;;;;;;;1.60;1.50;;;;;;;23.72;39.06;101982.00;4167385;28;20115;-47
2021/06/05 04:30:27;;;;;;;1.40;1.30;;;;;;;23.77;38.94;101973.56;4160877;28;20446;-48
2021/06/05 04:32:28;;;;;;;1.40;1.30;;;;;;;23.75;38.73;101959.06;4160291;28;20095;-49
2021/06/05 04:34:28;;;;;;;1.48;1.33;;;;;;;23.91;38.68;101975.78;4165779;28;20033;-49
2021/06/05 04:36:29;;;;;;;1.60;1.50;;;;;;;23.86;38.69;101969.06;4168403;28;20037;-50
2021/06/05 04:38:29;;;;;;;1.70;1.60;;;;;;;23.75;38.81;101967.44;4168138;28;20155;-48
2021/06/05 04:40:30;;;;;;;1.60;1.50;;;;;;;23.75;39.04;101969.41;4164556;28;20409;-47
2021/06/05 04:42:31;;;;;;;1.48;1.38;;;;;;;23.81;38.97;101973.88;4159747;28;20069;-48
2021/06/05 04:44:32;;;;;;;1.60;1.42;;;;;;;23.73;38.72;101961.31;4165871;28;20439;-49
2021/06/05 04:46:32;;;;;;;2.40;1.42;;;;;;;23.81;38.86;101965.47;4165564;28;20029;-48
2021/06/05 04:48:33;;;;;;;1.33;1.23;;;;;;;23.76;38.56;101971.06;4170679;28;20048;-49
2021/06/05 04:50:36;;;;;;;1.60;1.50;;;;;;;23.72;38.83;101973.59;4162291;28;20567;-50
2021/06/05 04:52:37;;;;;;;1.40;1.30;;;;;;;23.71;39.31;101973.91;4160337;28;20043;-51
2021/06/05 04:54:37;;;;;;;3.08;1.20;;;;;;;23.71;39.14;101980.31;4160946;28;20033;-52
2021/06/05 04:56:44;;;;;;;2.33;1.60;;;;;;;23.68;39.02;101986.47;4161811;28;20065;-49
2021/06/05 04:58:45;;;;;;;1.63;1.20;;;;;;;23.71;38.96;101988.69;4163897;28;20552;-51
2021/06/05 05:00:48;;;;;;;1.35;1.20;;;;;;;23.68;38.99;101986.47;4168040;28;20029;-47
2021/06/05 05:02:48;;;;;;;3.22;1.30;;;;;;;23.63;39.17;101994.88;4167515;28;20034;-49
2021/06/05 05:04:49;;;;;;;1.17;0.90;;;;;;;23.68;38.67;101992.06;4164961;28;20513;-51
2021/06/05 05:06:49;;;;;;;1.40;1.30;;;;;;;23.66;38.90;101983.97;4163660;28;20199;-48
2021/06/05 05:08:50;;;;;;;1.45;0.90;;;;;;;23.70;38.83;101984.25;4162682;28;20125;-53
2021/06/05 05:10:52;;;;;;;1.13;1.10;;;;;;;23.68;38.72;101984.53;4167808;28;20183;-51
2021/06/05 05:12:52;;;;;;;1.45;0.90;;;;;;;23.58;38.97;101986.53;4170304;28;20490;-50
2021/06/05 05:14:54;;;;;;;1.30;1.20;;;;;;;23.57;39.19;101984.84;4163794;28;20042;-54
2021/06/05 05:16:55;;;;;;;0.98;0.98;;;;;;;23.50;39.24;101985.97;4162020;28;20032;-53
2021/06/05 05:18:56;;;;;;;1.27;1.17;;;;;;;23.54;38.98;101980.66;4163636;28;20033;-55
2021/06/05 05:20:59;;;;;;;1.17;1.08;;;;;;;23.47;39.20;101977.34;4165085;28;20037;-54
2021/06/05 05:23:00;;;;;;;1.08;0.98;;;;;;;23.54;38.78;101985.41;4163265;28;20030;-55
2021/06/05 05:25:00;;;;;;;1.00;1.00;;;;;;;23.54;38.70;101986.22;4171211;28;20037;-47
2021/06/05 05:27:01;;;;;;;1.40;0.85;;;;;;;23.58;39.03;101980.94;4166389;28;20417;-48
2021/06/05 05:29:01;;;;;;;1.20;0.90;;;;;;;23.45;39.45;101988.78;4167649;28;20032;-48
2021/06/05 05:31:06;;;;;;;1.00;1.00;;;;;;;23.40;39.30;101991.56;4166628;28;20029;-47
2021/06/05 05:33:07;;;;;;;1.15;1.05;;;;;;;23.46;39.20;101998.81;4170601;28;20025;-47
2021/06/05 05:35:08;;;;;;;2.28;1.00;;;;;;;23.41;39.20;101979.28;4163638;28;20436;-49
2021/06/05 05:37:09;;;;;;;3.70;1.13;;;;;;;23.44;39.22;101997.47;4170261;28;20072;-50
2021/06/05 05:39:13;;;;;;;2.05;1.08;;;;;;;23.38;39.46;101993.00;4168157;28;20040;-48
2021/06/05 05:41:16;;;;;;;2.00;1.20;;;;;;;23.36;39.43;101989.63;4172801;28;20037;-51
2021/06/05 05:43:17;;;;;;;1.25;1.15;;;;;;;23.37;39.42;101999.69;4163187;28;20155;-50
2021/06/05 05:45:18;;;;;;;1.13;1.00;;;;;;;23.37;39.38;102000.53;4169649;28;20136;-51
2021/06/05 05:47:19;;;;;;;1.30;1.20;;;;;;;23.29;39.90;101992.69;4168302;28;20048;-52
2021/06/05 05:49:19;;;;;;;1.67;1.20;;;;;;;23.31;39.68;101993.22;4167149;28;20037;-51
2021/06/05 05:51:22;;;;;;;0.73;0.73;;;;;;;23.27;39.86;101992.16;4164672;28;20076;-50
2021/06/05 05:53:23;;;;;;;1.60;1.10;;;;;;;23.30;39.50;101992.41;4168273;28;21254;-49
2021/06/05 05:55:23;;;;;;;1.38;1.27;;;;;;;23.26;39.72;101998.84;4163492;28;20072;-50
2021/06/05 05:57:24;;;;;;;1.73;1.63;;;;;;;23.28;39.35;102007.75;4164549;28;20108;-50
2021/06/05 05:59:26;;;;;;;2.15;1.20;;;;;;;23.32;39.68;102004.16;4170093;28;20373;-52
2021/06/05 06:01:28;;;;;;;2.80;1.13;;;;;;;23.28;39.72;102010.56;4162903;28;20102;-52
2021/06/05 06:03:30;;;;;;;1.90;1.15;;;;;;;23.37;39.74;102008.91;4161861;28;20312;-50
2021/06/05 06:05:30;;;;;;;1.20;1.08;;;;;;;23.26;39.63;102007.22;4162391;28;20074;-50
2021/06/05 06:07:31;;;;;;;1.30;1.10;;;;;;;23.22;39.96;102020.06;4167960;28;20501;-50
2021/06/05 06:09:31;;;;;;;1.02;1.00;;;;;;;23.21;39.81;102015.63;4168290;28;20029;-50
2021/06/05 06:11:31;;;;;;;1.20;0.75;;;;;;;23.18;39.80;102016.19;4165384;28;20025;-49
2021/06/05 06:13:32;;;;;;;1.27;1.00;;;;;;;23.31;39.62;102029.56;4172003;28;20033;-48
2021/06/05 06:15:33;;;;;;;3.17;1.00;;;;;;;23.23;39.65;102021.75;4166776;28;20132;-51
2021/06/05 06:17:33;;;;;;;0.85;0.85;;;;;;;23.19;39.67;102026.22;4171459;28;20116;-52
2021/06/05 06:19:33;;;;;;;1.85;1.10;;;;;;;23.17;39.86;102026.50;4168719;28;20039;-50
2021/06/05 06:21:34;;;;;;;3.70;1.27;;;;;;;23.13;39.90;102026.22;4161000;28;20044;-50
2021/06/05 06:23:37;;;;;;;1.73;1.45;;;;;;;23.15;39.89;102023.97;4171298;28;20042;-51
2021/06/05 06:25:40;;;;;;;1.33;1.10;;;;;;;23.16;39.74;102033.22;4169965;28;20026;-51
2021/06/05 06:27:41;;;;;;;1.88;1.60;;;;;;;23.13;39.97;102028.19;4171880;28;20386;-53
2021/06/05 06:29:41;;;;;;;2.17;1.20;;;;;;;23.18;40.00;102033.75;4166019;28;20029;-52
2021/06/05 06:31:47;;;;;;;2.33;1.33;;;;;;;23.20;39.83;102041.88;4166318;28;20040;-52
2021/06/05 06:33:48;;;;;;;1.65;1.27;;;;;;;23.21;39.97;102043.56;4164843;28;20522;-50
2021/06/05 06:35:48;;;;;;;5.95;1.33;;;;;;;23.13;40.26;102048.56;4170881;28;20263;-54
2021/06/05 06:37:50;;;;;;;3.10;1.40;;;;;;;23.22;39.48;102053.59;4170524;28;20933;-54
2021/06/05 06:39:51;;;;;;;4.63;1.35;;;;;;;23.19;39.57;102037.38;4169602;28;20021;-55
2021/06/05 06:41:51;;;;;;;2.80;1.65;;;;;;;23.21;39.87;102055.56;4169922;28;20118;-54
2021/06/05 06:43:52;;;;;;;5.47;1.60;;;;;;;23.18;39.86;102053.31;4164003;28;20419;-51
2021/06/05 06:45:53;;;;;;;2.63;1.38;;;;;;;23.28;39.85;102061.69;4165500;28;20623;-53
2021/06/05 06:47:55;;;;;;;1.67;1.58;;;;;;;23.14;39.88;102057.78;4163563;28;20033;-52
2021/06/05 06:49:55;;;;;;;2.78;1.60;;;;;;;23.25;39.90;102064.19;4168046;28;20071;-51
2021/06/05 06:51:56;;;;;;;2.45;1.65;;;;;;;23.14;39.91;102061.44;4160798;28;20472;-53
2021/06/05 06:53:57;;;;;;;2.67;1.67;;;;;;;23.15;39.79;102063.09;4164025;28;20049;-51
2021/06/05 06:55:58;;;;;;;1.73;1.40;;;;;;;23.15;39.62;102063.09;4165405;28;20432;-51
2021/06/05 06:57:59;;;;;;;2.88;1.23;;;;;;;23.31;39.46;102065.88;4168852;28;20408;-49
2021/06/05 06:59:59;;;;;;;4.07;1.55;;;;;;;23.23;39.75;102063.66;4167448;28;20071;-51
2021/06/05 07:02:00;;;;;;;1.75;1.30;;;;;;;23.31;39.27;102071.47;4163669;28;20037;-53
2021/06/05 07:04:00;;;;;;;2.08;1.80;;;;;;;23.12;39.39;102046.06;4164514;28;20036;-50
2021/06/05 07:06:01;;;;;;;2.10;1.67;;;;;;;23.31;39.73;102071.47;4158359;28;20033;-51
2021/06/05 07:08:26;;;;;;;2.42;1.60;;;;;;;23.16;39.74;102063.94;4169309;28;20090;-49
2021/06/05 07:10:26;;;;;;;2.63;2.00;;;;;;;23.36;39.73;102079.03;4169377;28;20048;-52
2021/06/05 07:12:27;;;;;;;1.85;1.67;;;;;;;23.26;39.57;102088.22;4167364;28;20029;-53
2021/06/05 07:14:27;;;;;;;2.58;2.05;;;;;;;23.25;39.63;102078.16;4161879;28;21895;-54
2021/06/05 07:16:29;;;;;;;1.70;1.60;;;;;;;23.34;39.42;102084.91;4168363;28;20102;-52
2021/06/05 07:18:31;;;;;;;1.90;1.70;;;;;;;23.31;39.18;102086.31;4165213;28;20475;-50
2021/06/05 07:20:32;;;;;;;2.75;1.83;;;;;;;23.28;39.33;102086.00;4160784;28;20434;-51
2021/06/05 07:22:32;;;;;;;2.30;2.10;;;;;;;23.29;39.38;102082.91;4151217;28;20088;-53
2021/06/05 07:24:33;;;;;;;1.92;1.60;;;;;;;23.27;39.42;102085.16;4156154;28;20041;-54
2021/06/05 07:26:35;;;;;;;2.65;1.92;;;;;;;23.26;39.76;102082.66;4172919;28;20021;-52
2021/06/05 07:28:45;;;;;;;1.85;1.70;;;;;;;23.30;39.33;102079.00;4167340;28;20034;-52
2021/06/05 07:30:46;;;;;;;3.72;1.90;;;;;;;23.32;39.38;102084.34;4166923;28;20104;-54
2021/06/05 07:32:47;;;;;;;2.72;1.83;;;;;;;23.27;39.39;102074.00;4164151;28;20052;-52
2021/06/05 07:34:48;;;;;;;2.15;1.95;;;;;;;23.33;39.38;102078.47;4165974;28;20075;-53
2021/06/05 07:37:03;;;;;;;2.03;1.85;;;;;;;23.35;39.36;102082.97;4160434;28;20622;-53
2021/06/05 07:39:06;;;;;;;1.83;1.73;;;;;;;23.39;39.46;102082.13;4167354;28;20021;-52
2021/06/05 07:41:07;;;;;;;3.05;1.85;;;;;;;23.38;38.97;102063.69;4167957;28;20072;-55
2021/06/05 07:43:08;;;;;;;3.30;2.28;;;;;;;23.39;39.10;102067.28;4165064;28;20646;-53
2021/06/05 07:45:10;;;;;;;2.38;2.10;;;;;;;23.39;39.08;102059.78;4163034;28;20122;-52
2021/06/05 07:47:10;;;;;;;2.17;1.83;;;;;;;23.39;39.15;102070.94;4168923;28;20578;-53
2021/06/05 07:49:11;;;;;;;2.20;2.00;;;;;;;23.38;39.36;102071.22;4165937;28;20040;-54
2021/06/05 07:51:12;;;;;;;2.40;2.20;;;;;;;23.32;39.14;102067.59;4162619;28;20383;-53
2021/06/05 07:53:12;;;;;;;2.22;2.03;;;;;;;23.37;39.02;102075.97;4165146;28;20052;-51
2021/06/05 07:55:13;;;;;;;2.38;1.98;;;;;;;23.30;39.52;102078.19;4169754;28;21176;-54
2021/06/05 07:57:13;;;;;;;2.10;2.00;;;;;;;23.32;39.13;102081.56;4161340;28;20038;-55
2021/06/05 07:59:15;;;;;;;1.95;1.80;;;;;;;23.26;39.16;102079.84;4163826;28;20346;-53
2021/06/05 08:01:16;;;;;;;2.78;1.95;;;;;;;23.29;39.15;102087.69;4164936;28;20025;-54
2021/06/05 08:03:16;;;;;;;2.80;2.60;;;;;;;23.26;39.28;102071.47;4164972;28;20040;-54
2021/06/05 08:05:19;;;;;;;2.42;2.22;;;;;;;23.25;39.33;102069.78;4162911;28;20041;-50
2021/06/05 08:07:19;;;;;;;2.17;2.08;;;;;;;23.27;39.40;102073.16;4162604;28;20037;-51
2021/06/05 08:09:20;;;;;;;2.40;2.20;;;;;;;23.27;39.17;102076.78;4165727;28;20061;-54
2021/06/05 08:11:21;;;;;;;2.38;2.17;;;;;;;23.31;39.05;102080.72;4165166;28;20084;-53
2021/06/05 08:13:22;;;;;;;2.35;2.25;;;;;;;23.30;39.00;102081.81;4162130;28;20032;-53
2021/06/05 08:15:26;;;;;;;2.30;2.05;;;;;;;23.33;38.99;102077.66;4160793;28;20115;-51
2021/06/05 08:17:26;;;;;;;4.65;2.60;;;;;;;23.30;39.24;102076.22;4163089;28;20079;-48
2021/06/05 08:19:27;;;;;;;2.53;2.17;;;;;;;23.22;38.76;102073.13;4164685;28;20033;-49
2021/06/05 08:21:27;;;;;;;2.17;1.98;;;;;;;23.06;39.36;102047.16;4164791;28;20033;-52
2021/06/05 08:23:30;;;;;;;2.75;1.98;;;;;;;23.24;38.96;102079.31;4159289;28;20076;-49
2021/06/05 08:25:31;;;;;;;2.15;1.95;;;;;;;23.28;38.91;102072.03;4161938;28;20049;-50
2021/06/05 08:27:32;;;;;;;2.60;2.40;;;;;;;23.22;38.87;102087.09;4168193;28;20392;-49
2021/06/05 08:29:32;;;;;;;2.35;2.15;;;;;;;23.10;39.77;102087.41;4164892;28;20043;-49
2021/06/05 08:31:33;;;;;;;2.63;2.42;;;;;;;23.23;39.28;102092.41;4165820;28;20043;-49
2021/06/05 08:33:34;;;;;;;6.32;3.17;;;;;;;23.29;39.00;102087.69;4163519;28;20509;-48
2021/06/05 08:35:36;;;;;;;3.63;2.10;;;;;;;23.21;39.16;102093.81;4164336;28;20090;-48
2021/06/05 08:37:36;;;;;;;3.67;2.13;;;;;;;23.21;39.35;102088.25;4168692;28;20021;-48
2021/06/05 08:39:37;;;;;;;2.30;2.10;;;;;;;23.23;39.16;102091.59;4163055;28;20403;-48
2021/06/05 08:41:46;;;;;;;2.33;2.00;;;;;;;23.29;39.16;102090.47;4161720;28;20056;-50
2021/06/05 08:43:50;;;;;;;3.47;2.20;;;;;;;23.25;39.11;102084.63;4165501;28;20033;-51
2021/06/05 08:45:52;;;;;;;2.50;2.30;;;;;;;23.24;39.22;102087.69;4158677;28;20494;-50
2021/06/05 08:47:52;;;;;;;2.83;2.40;;;;;;;23.25;39.30;102080.97;4158956;28;20029;-50
2021/06/05 08:49:52;;;;;;;2.55;2.35;;;;;;;23.24;39.23;102082.09;4151461;28;20527;-49
2021/06/05 08:52:07;;;;;;;3.22;2.40;;;;;;;23.25;39.38;102086.53;4166247;28;20060;-48
2021/06/05 08:54:39;;;;;;;2.67;2.22;;;;;;;23.24;39.03;102088.50;4163545;28;20164;-53
2021/06/05 08:56:40;;;;;;;2.90;2.70;;;;;;;23.22;39.15;102092.69;4155317;28;20106;-51
2021/06/05 08:58:46;;;;;;;2.30;2.10;;;;;;;23.17;39.09;102090.72;4165183;28;20104;-52
2021/06/05 09:00:47;;;;;;;2.53;2.33;;;;;;;23.20;39.29;102087.38;4163191;28;20028;-50
2021/06/05 09:02:51;;;;;;;2.88;2.67;;;;;;;23.12;39.26;102074.81;4168589;28;20037;-49
2021/06/05 09:04:53;;;;;;;4.35;2.90;;;;;;;23.18;39.00;102089.63;4169799;28;20403;-49
2021/06/05 09:07:07;;;;;;;3.20;2.90;;;;;;;23.25;38.95;102092.13;4152644;28;20029;-49
2021/06/05 09:09:12;;;;;;;2.78;2.58;;;;;;;23.13;39.53;102098.84;4169712;28;20357;-50
2021/06/05 09:11:14;;;;;;;2.83;2.63;;;;;;;23.13;39.17;102092.44;4165200;28;20029;-54
2021/06/05 09:13:15;;;;;;;2.78;2.58;;;;;;;23.19;39.14;102098.84;4163313;28;20037;-50
2021/06/05 09:15:23;;;;;;;2.80;2.60;;;;;;;23.22;39.07;102089.91;4171656;28;20025;-48
2021/06/05 09:17:29;;;;;;;2.70;2.50;;;;;;;23.23;39.17;102097.16;4168773;28;20083;-51
2021/06/05 09:19:32;;;;;;;2.83;2.63;;;;;;;23.20;39.19;102092.16;4165332;28;20037;-50
2021/06/05 09:21:42;;;;;;;2.83;2.40;;;;;;;23.17;39.02;102096.31;4169223;28;20029;-49
2021/06/05 09:23:43;;;;;;;2.83;2.60;;;;;;;23.21;38.95;102097.44;4166379;28;20034;-49
2021/06/05 09:25:43;;;;;;;2.45;2.28;;;;;;;23.23;39.03;102092.41;4167533;28;20440;-49
2021/06/05 09:27:43;;;;;;;2.30;2.20;;;;;;;23.14;39.23;102083.78;4161700;28;20038;-49
2021/06/05 09:29:54;;;;;;;2.67;2.47;;;;;;;23.17;39.17;102099.13;4164540;28;20092;-50
2021/06/05 09:32:06;;;;;;;3.75;2.45;;;;;;;23.23;39.22;102091.59;4165864;28;20035;-50